Terminal Aerodrome Forecast
Issued by NWS

Home | Current Version | Previous Version | Text Only | Print | Product List | Glossary On
Versions: 1 2 3 4 5 6 7 8 9 10 11 12 13 14 15 16
000
FTUS41 KBTV 262332
TAFMPV
TAF
KMPV 262332Z 2700/2724 27005KT P6SM BKN025
      TEMPO 2700/2701 5SM -SHRA BR OVC012
     FM270300 VRB04KT P6SM BKN018
     FM270500 VRB03KT P6SM BKN045
     FM270700 VRB04KT P6SM SCT200
      TEMPO 2708/2711 3SM BR SCT001
     FM271200 20005KT P6SM BKN150
     FM272000 VRB03KT 4SM -SHRA BR OVC028=

USA.gov is the U.S. government's official web portal to all federal, state and local government web resources and services.